sensor_id;sensor_type;location;lat;lon;timestamp;P1;durP1;ratioP1;P2;durP2;ratioP2
38683;SDS011;24910;53.248;-6.134;2022-11-20T00:01:51;24.23;;;4.25;;
38683;SDS011;24910;53.248;-6.134;2022-11-20T00:04:20;30.77;;;4.70;;
38683;SDS011;24910;53.248;-6.134;2022-11-20T00:06:49;33.10;;;4.50;;
38683;SDS011;24910;53.248;-6.134;2022-11-20T00:09:19;22.17;;;3.88;;
38683;SDS011;24910;53.248;-6.134;2022-11-20T00:11:49;22.08;;;3.25;;
38683;SDS011;24910;53.248;-6.134;2022-11-20T00:14:18;19.77;;;2.72;;
38683;SDS011;24910;53.248;-6.134;2022-11-20T00:16:47;17.00;;;3.03;;
38683;SDS011;24910;53.248;-6.134;2022-11-20T00:19:16;28.10;;;3.78;;
38683;SDS011;24910;53.248;-6.134;2022-11-20T00:21:46;24.70;;;3.25;;
38683;SDS011;24910;53.248;-6.134;2022-11-20T00:24:19;37.47;;;4.35;;
38683;SDS011;24910;53.248;-6.134;2022-11-20T00:26:49;25.05;;;4.43;;
38683;SDS011;24910;53.248;-6.134;2022-11-20T00:29:18;26.08;;;3.72;;
38683;SDS011;24910;53.248;-6.134;2022-11-20T00:31:47;23.70;;;4.35;;
38683;SDS011;24910;53.248;-6.134;2022-11-20T00:34:16;24.80;;;3.92;;
38683;SDS011;24910;53.248;-6.134;2022-11-20T00:36:45;29.25;;;4.50;;
38683;SDS011;24910;53.248;-6.134;2022-11-20T00:39:14;27.30;;;3.70;;
38683;SDS011;24910;53.248;-6.134;2022-11-20T00:41:45;25.10;;;3.97;;
38683;SDS011;24910;53.248;-6.134;2022-11-20T00:44:14;29.33;;;4.80;;
38683;SDS011;24910;53.248;-6.134;2022-11-20T00:46:44;39.25;;;3.97;;
38683;SDS011;24910;53.248;-6.134;2022-11-20T00:49:13;27.33;;;4.05;;
38683;SDS011;24910;53.248;-6.134;2022-11-20T00:51:42;28.17;;;4.30;;
38683;SDS011;24910;53.248;-6.134;2022-11-20T00:54:11;30.13;;;4.97;;
38683;SDS011;24910;53.248;-6.134;2022-11-20T00:56:40;32.45;;;4.32;;
38683;SDS011;24910;53.248;-6.134;2022-11-20T00:59:10;33.60;;;5.05;;
38683;SDS011;24910;53.248;-6.134;2022-11-20T01:01:40;32.58;;;4.53;;
38683;SDS011;24910;53.248;-6.134;2022-11-20T01:04:09;29.08;;;5.63;;
38683;SDS011;24910;53.248;-6.134;2022-11-20T01:06:38;31.50;;;6.03;;
38683;SDS011;24910;53.248;-6.134;2022-11-20T01:09:09;40.60;;;5.93;;
38683;SDS011;24910;53.248;-6.134;2022-11-20T01:11:41;33.50;;;6.03;;
38683;SDS011;24910;53.248;-6.134;2022-11-20T01:14:13;35.95;;;5.65;;
38683;SDS011;24910;53.248;-6.134;2022-11-20T01:16:44;31.13;;;5.22;;
38683;SDS011;24910;53.248;-6.134;2022-11-20T01:19:16;34.78;;;4.85;;
38683;SDS011;24910;53.248;-6.134;2022-11-20T01:21:47;36.10;;;6.22;;
38683;SDS011;24910;53.248;-6.134;2022-11-20T01:24:18;28.25;;;6.72;;
38683;SDS011;24910;53.248;-6.134;2022-11-20T01:26:49;38.40;;;6.57;;
38683;SDS011;24910;53.248;-6.134;2022-11-20T01:29:21;29.80;;;4.63;;
38683;SDS011;24910;53.248;-6.134;2022-11-20T01:31:51;27.60;;;4.85;;
38683;SDS011;24910;53.248;-6.134;2022-11-20T01:34:21;37.38;;;4.50;;
38683;SDS011;24910;53.248;-6.134;2022-11-20T01:36:51;41.70;;;6.47;;
38683;SDS011;24910;53.248;-6.134;2022-11-20T01:39:21;33.35;;;4.30;;
38683;SDS011;24910;53.248;-6.134;2022-11-20T01:41:51;28.42;;;4.50;;
38683;SDS011;24910;53.248;-6.134;2022-11-20T01:47:31;29.05;;;5.72;;
38683;SDS011;24910;53.248;-6.134;2022-11-20T01:50:05;29.13;;;5.28;;
38683;SDS011;24910;53.248;-6.134;2022-11-20T01:52:39;29.98;;;4.70;;
38683;SDS011;24910;53.248;-6.134;2022-11-20T01:55:13;32.38;;;5.20;;
38683;SDS011;24910;53.248;-6.134;2022-11-20T01:57:46;35.97;;;5.63;;
38683;SDS011;24910;53.248;-6.134;2022-11-20T02:00:19;40.22;;;8.50;;
38683;SDS011;24910;53.248;-6.134;2022-11-20T02:02:50;40.08;;;5.72;;
38683;SDS011;24910;53.248;-6.134;2022-11-20T02:05:24;32.28;;;4.80;;
38683;SDS011;24910;53.248;-6.134;2022-11-20T02:07:57;35.67;;;6.68;;
38683;SDS011;24910;53.248;-6.134;2022-11-20T02:10:27;33.45;;;6.30;;
38683;SDS011;24910;53.248;-6.134;2022-11-20T02:12:57;37.80;;;5.47;;
38683;SDS011;24910;53.248;-6.134;2022-11-20T02:15:46;29.13;;;5.22;;
38683;SDS011;24910;53.248;-6.134;2022-11-20T02:18:16;26.40;;;4.95;;
38683;SDS011;24910;53.248;-6.134;2022-11-20T02:20:47;35.97;;;5.13;;
38683;SDS011;24910;53.248;-6.134;2022-11-20T02:23:22;38.47;;;4.78;;
38683;SDS011;24910;53.248;-6.134;2022-11-20T02:25:57;26.65;;;4.95;;
38683;SDS011;24910;53.248;-6.134;2022-11-20T02:28:28;30.50;;;4.60;;
38683;SDS011;24910;53.248;-6.134;2022-11-20T02:30:57;30.08;;;4.38;;
38683;SDS011;24910;53.248;-6.134;2022-11-20T02:33:26;35.03;;;5.05;;
38683;SDS011;24910;53.248;-6.134;2022-11-20T02:35:55;43.53;;;4.75;;
38683;SDS011;24910;53.248;-6.134;2022-11-20T02:38:24;33.20;;;4.85;;
38683;SDS011;24910;53.248;-6.134;2022-11-20T02:40:53;40.05;;;5.22;;
38683;SDS011;24910;53.248;-6.134;2022-11-20T02:43:24;28.30;;;4.20;;
38683;SDS011;24910;53.248;-6.134;2022-11-20T02:45:53;34.53;;;4.20;;
38683;SDS011;24910;53.248;-6.134;2022-11-20T02:48:22;27.02;;;3.90;;
38683;SDS011;24910;53.248;-6.134;2022-11-20T02:50:52;29.42;;;3.92;;
38683;SDS011;24910;53.248;-6.134;2022-11-20T02:53:21;25.38;;;3.00;;
38683;SDS011;24910;53.248;-6.134;2022-11-20T02:55:50;19.90;;;2.85;;
38683;SDS011;24910;53.248;-6.134;2022-11-20T02:58:19;22.05;;;3.05;;
38683;SDS011;24910;53.248;-6.134;2022-11-20T03:00:49;12.68;;;2.50;;
38683;SDS011;24910;53.248;-6.134;2022-11-20T03:03:18;12.87;;;2.03;;
38683;SDS011;24910;53.248;-6.134;2022-11-20T03:05:47;13.55;;;2.72;;
38683;SDS011;24910;53.248;-6.134;2022-11-20T03:08:16;12.75;;;2.85;;
38683;SDS011;24910;53.248;-6.134;2022-11-20T03:10:45;14.82;;;3.03;;
38683;SDS011;24910;53.248;-6.134;2022-11-20T03:13:14;17.00;;;2.60;;
38683;SDS011;24910;53.248;-6.134;2022-11-20T03:15:43;16.95;;;3.40;;
38683;SDS011;24910;53.248;-6.134;2022-11-20T03:18:14;16.52;;;2.35;;
38683;SDS011;24910;53.248;-6.134;2022-11-20T03:20:43;17.83;;;2.63;;
38683;SDS011;24910;53.248;-6.134;2022-11-20T03:23:12;21.95;;;2.63;;
38683;SDS011;24910;53.248;-6.134;2022-11-20T03:25:41;16.35;;;2.85;;
38683;SDS011;24910;53.248;-6.134;2022-11-20T03:28:10;14.80;;;2.28;;
38683;SDS011;24910;53.248;-6.134;2022-11-20T03:30:39;18.08;;;2.65;;
38683;SDS011;24910;53.248;-6.134;2022-11-20T03:33:08;17.73;;;2.22;;
38683;SDS011;24910;53.248;-6.134;2022-11-20T03:35:38;17.67;;;3.17;;
38683;SDS011;24910;53.248;-6.134;2022-11-20T03:38:07;16.75;;;2.30;;
38683;SDS011;24910;53.248;-6.134;2022-11-20T03:40:36;12.77;;;2.33;;
38683;SDS011;24910;53.248;-6.134;2022-11-20T03:43:05;11.32;;;2.33;;
38683;SDS011;24910;53.248;-6.134;2022-11-20T03:45:34;11.90;;;2.40;;
38683;SDS011;24910;53.248;-6.134;2022-11-20T03:48:04;19.02;;;2.90;;
38683;SDS011;24910;53.248;-6.134;2022-11-20T03:50:33;12.20;;;2.83;;
38683;SDS011;24910;53.248;-6.134;2022-11-20T03:53:03;14.23;;;2.40;;
38683;SDS011;24910;53.248;-6.134;2022-11-20T03:55:32;12.83;;;2.27;;
38683;SDS011;24910;53.248;-6.134;2022-11-20T03:58:01;17.83;;;2.80;;
38683;SDS011;24910;53.248;-6.134;2022-11-20T04:00:31;14.98;;;2.60;;
38683;SDS011;24910;53.248;-6.134;2022-11-20T04:03:00;15.43;;;3.03;;
38683;SDS011;24910;53.248;-6.134;2022-11-20T04:05:30;15.00;;;2.60;;
38683;SDS011;24910;53.248;-6.134;2022-11-20T04:08:01;18.42;;;3.00;;
38683;SDS011;24910;53.248;-6.134;2022-11-20T04:10:31;16.63;;;2.50;;
38683;SDS011;24910;53.248;-6.134;2022-11-20T04:13:01;14.75;;;2.53;;
38683;SDS011;24910;53.248;-6.134;2022-11-20T04:15:30;16.67;;;2.95;;
38683;SDS011;24910;53.248;-6.134;2022-11-20T04:18:04;26.27;;;2.70;;
38683;SDS011;24910;53.248;-6.134;2022-11-20T04:20:33;22.83;;;2.58;;
38683;SDS011;24910;53.248;-6.134;2022-11-20T04:23:03;20.45;;;3.17;;
38683;SDS011;24910;53.248;-6.134;2022-11-20T04:25:34;22.90;;;2.63;;
38683;SDS011;24910;53.248;-6.134;2022-11-20T04:28:03;25.37;;;3.17;;
38683;SDS011;24910;53.248;-6.134;2022-11-20T04:30:32;17.38;;;3.00;;
38683;SDS011;24910;53.248;-6.134;2022-11-20T04:33:01;18.88;;;2.35;;
38683;SDS011;24910;53.248;-6.134;2022-11-20T04:35:30;13.85;;;2.78;;
38683;SDS011;24910;53.248;-6.134;2022-11-20T04:38:02;21.33;;;3.65;;
38683;SDS011;24910;53.248;-6.134;2022-11-20T04:40:33;17.98;;;2.72;;
38683;SDS011;24910;53.248;-6.134;2022-11-20T04:43:02;17.67;;;3.30;;
38683;SDS011;24910;53.248;-6.134;2022-11-20T04:45:31;23.42;;;3.22;;
38683;SDS011;24910;53.248;-6.134;2022-11-20T04:48:00;17.20;;;3.60;;
38683;SDS011;24910;53.248;-6.134;2022-11-20T04:50:29;23.20;;;3.20;;
38683;SDS011;24910;53.248;-6.134;2022-11-20T04:52:58;21.33;;;3.70;;
38683;SDS011;24910;53.248;-6.134;2022-11-20T04:55:27;17.73;;;3.03;;
38683;SDS011;24910;53.248;-6.134;2022-11-20T04:57:57;19.95;;;2.97;;
38683;SDS011;24910;53.248;-6.134;2022-11-20T05:00:27;23.45;;;3.08;;
38683;SDS011;24910;53.248;-6.134;2022-11-20T05:02:56;22.33;;;3.42;;
38683;SDS011;24910;53.248;-6.134;2022-11-20T05:05:25;20.70;;;2.70;;
38683;SDS011;24910;53.248;-6.134;2022-11-20T05:07:55;15.90;;;3.28;;
38683;SDS011;24910;53.248;-6.134;2022-11-20T05:10:24;15.73;;;3.05;;
38683;SDS011;24910;53.248;-6.134;2022-11-20T05:12:56;19.27;;;2.95;;
38683;SDS011;24910;53.248;-6.134;2022-11-20T05:15:27;16.25;;;2.35;;
38683;SDS011;24910;53.248;-6.134;2022-11-20T05:17:56;19.90;;;2.50;;
38683;SDS011;24910;53.248;-6.134;2022-11-20T05:20:25;21.13;;;3.15;;
38683;SDS011;24910;53.248;-6.134;2022-11-20T05:22:56;24.40;;;3.20;;
38683;SDS011;24910;53.248;-6.134;2022-11-20T05:25:25;17.63;;;2.67;;
38683;SDS011;24910;53.248;-6.134;2022-11-20T05:27:54;23.35;;;3.08;;
38683;SDS011;24910;53.248;-6.134;2022-11-20T05:30:24;24.98;;;3.15;;
38683;SDS011;24910;53.248;-6.134;2022-11-20T05:32:53;21.00;;;2.77;;
38683;SDS011;24910;53.248;-6.134;2022-11-20T05:35:22;17.75;;;2.70;;
38683;SDS011;24910;53.248;-6.134;2022-11-20T05:37:51;17.10;;;2.47;;
38683;SDS011;24910;53.248;-6.134;2022-11-20T05:40:21;16.83;;;2.70;;
38683;SDS011;24910;53.248;-6.134;2022-11-20T05:42:49;15.77;;;1.90;;
38683;SDS011;24910;53.248;-6.134;2022-11-20T05:45:19;20.00;;;2.40;;
38683;SDS011;24910;53.248;-6.134;2022-11-20T05:47:49;16.70;;;2.17;;
38683;SDS011;24910;53.248;-6.134;2022-11-20T05:50:18;16.53;;;2.07;;
38683;SDS011;24910;53.248;-6.134;2022-11-20T05:52:47;17.80;;;2.30;;
38683;SDS011;24910;53.248;-6.134;2022-11-20T05:55:16;12.27;;;1.80;;
38683;SDS011;24910;53.248;-6.134;2022-11-20T05:57:46;15.77;;;2.20;;
38683;SDS011;24910;53.248;-6.134;2022-11-20T06:00:15;17.85;;;2.28;;
38683;SDS011;24910;53.248;-6.134;2022-11-20T06:02:45;17.15;;;2.50;;
38683;SDS011;24910;53.248;-6.134;2022-11-20T06:05:15;17.52;;;2.53;;
38683;SDS011;24910;53.248;-6.134;2022-11-20T06:07:44;21.10;;;2.50;;
38683;SDS011;24910;53.248;-6.134;2022-11-20T06:10:13;18.58;;;2.45;;
38683;SDS011;24910;53.248;-6.134;2022-11-20T06:12:42;20.90;;;2.47;;
38683;SDS011;24910;53.248;-6.134;2022-11-20T06:15:11;16.20;;;2.53;;
38683;SDS011;24910;53.248;-6.134;2022-11-20T06:17:40;16.08;;;2.75;;
38683;SDS011;24910;53.248;-6.134;2022-11-20T06:20:09;16.08;;;2.15;;
38683;SDS011;24910;53.248;-6.134;2022-11-20T06:22:40;13.23;;;2.17;;
38683;SDS011;24910;53.248;-6.134;2022-11-20T06:25:09;15.70;;;2.17;;
38683;SDS011;24910;53.248;-6.134;2022-11-20T06:27:38;10.25;;;1.92;;
38683;SDS011;24910;53.248;-6.134;2022-11-20T06:30:08;11.05;;;2.00;;
38683;SDS011;24910;53.248;-6.134;2022-11-20T06:32:37;15.27;;;2.40;;
38683;SDS011;24910;53.248;-6.134;2022-11-20T06:35:07;14.95;;;3.10;;
38683;SDS011;24910;53.248;-6.134;2022-11-20T06:37:36;17.00;;;2.40;;
38683;SDS011;24910;53.248;-6.134;2022-11-20T06:40:08;17.05;;;2.13;;
38683;SDS011;24910;53.248;-6.134;2022-11-20T06:42:38;18.33;;;2.20;;
38683;SDS011;24910;53.248;-6.134;2022-11-20T06:45:07;17.42;;;2.13;;
38683;SDS011;24910;53.248;-6.134;2022-11-20T06:47:37;12.15;;;1.95;;
38683;SDS011;24910;53.248;-6.134;2022-11-20T06:50:06;15.93;;;2.10;;
38683;SDS011;24910;53.248;-6.134;2022-11-20T06:52:36;17.08;;;2.75;;
38683;SDS011;24910;53.248;-6.134;2022-11-20T06:55:11;15.57;;;2.65;;
38683;SDS011;24910;53.248;-6.134;2022-11-20T06:57:40;20.13;;;2.67;;
38683;SDS011;24910;53.248;-6.134;2022-11-20T07:00:09;17.00;;;2.60;;
38683;SDS011;24910;53.248;-6.134;2022-11-20T07:02:39;13.40;;;2.50;;
38683;SDS011;24910;53.248;-6.134;2022-11-20T07:05:08;18.15;;;2.22;;
38683;SDS011;24910;53.248;-6.134;2022-11-20T07:07:37;18.85;;;2.58;;
38683;SDS011;24910;53.248;-6.134;2022-11-20T07:10:07;14.30;;;2.10;;
38683;SDS011;24910;53.248;-6.134;2022-11-20T07:12:38;12.80;;;2.22;;
38683;SDS011;24910;53.248;-6.134;2022-11-20T07:15:07;20.83;;;2.40;;
38683;SDS011;24910;53.248;-6.134;2022-11-20T07:17:36;16.42;;;2.40;;
38683;SDS011;24910;53.248;-6.134;2022-11-20T07:20:06;14.60;;;2.78;;
38683;SDS011;24910;53.248;-6.134;2022-11-20T07:22:35;19.60;;;2.80;;
38683;SDS011;24910;53.248;-6.134;2022-11-20T07:25:05;17.75;;;2.92;;
38683;SDS011;24910;53.248;-6.134;2022-11-20T07:27:34;20.88;;;3.03;;
38683;SDS011;24910;53.248;-6.134;2022-11-20T07:30:06;23.15;;;2.90;;
38683;SDS011;24910;53.248;-6.134;2022-11-20T07:32:36;21.08;;;2.83;;
38683;SDS011;24910;53.248;-6.134;2022-11-20T07:35:05;16.90;;;2.50;;
38683;SDS011;24910;53.248;-6.134;2022-11-20T07:37:34;18.33;;;2.70;;
38683;SDS011;24910;53.248;-6.134;2022-11-20T07:40:04;22.45;;;2.65;;
38683;SDS011;24910;53.248;-6.134;2022-11-20T07:42:33;16.88;;;2.50;;
38683;SDS011;24910;53.248;-6.134;2022-11-20T07:45:03;20.98;;;2.70;;
38683;SDS011;24910;53.248;-6.134;2022-11-20T07:50:03;18.90;;;2.33;;
38683;SDS011;24910;53.248;-6.134;2022-11-20T07:52:34;20.00;;;2.70;;
38683;SDS011;24910;53.248;-6.134;2022-11-20T07:55:04;31.00;;;2.88;;
38683;SDS011;24910;53.248;-6.134;2022-11-20T07:57:34;12.85;;;2.92;;
38683;SDS011;24910;53.248;-6.134;2022-11-20T08:00:05;20.02;;;3.17;;
38683;SDS011;24910;53.248;-6.134;2022-11-20T08:02:39;19.73;;;2.85;;
38683;SDS011;24910;53.248;-6.134;2022-11-20T08:05:09;20.30;;;2.35;;
38683;SDS011;24910;53.248;-6.134;2022-11-20T08:07:38;18.38;;;2.80;;
38683;SDS011;24910;53.248;-6.134;2022-11-20T08:10:09;19.08;;;2.60;;
38683;SDS011;24910;53.248;-6.134;2022-11-20T08:15:31;21.63;;;3.10;;
38683;SDS011;24910;53.248;-6.134;2022-11-20T08:18:01;21.83;;;2.75;;
38683;SDS011;24910;53.248;-6.134;2022-11-20T08:20:51;18.42;;;2.88;;
38683;SDS011;24910;53.248;-6.134;2022-11-20T08:23:20;24.60;;;3.45;;
38683;SDS011;24910;53.248;-6.134;2022-11-20T08:25:51;28.58;;;3.67;;
38683;SDS011;24910;53.248;-6.134;2022-11-20T08:28:20;18.98;;;2.72;;
38683;SDS011;24910;53.248;-6.134;2022-11-20T08:30:51;16.05;;;2.90;;
38683;SDS011;24910;53.248;-6.134;2022-11-20T08:33:25;18.30;;;2.40;;
38683;SDS011;24910;53.248;-6.134;2022-11-20T08:35:57;20.60;;;2.70;;
38683;SDS011;24910;53.248;-6.134;2022-11-20T08:38:28;26.38;;;3.63;;
38683;SDS011;24910;53.248;-6.134;2022-11-20T08:40:57;19.55;;;2.40;;
38683;SDS011;24910;53.248;-6.134;2022-11-20T08:43:53;20.55;;;2.55;;
38683;SDS011;24910;53.248;-6.134;2022-11-20T08:46:27;18.20;;;2.75;;
38683;SDS011;24910;53.248;-6.134;2022-11-20T08:49:00;16.85;;;2.30;;
38683;SDS011;24910;53.248;-6.134;2022-11-20T08:51:29;16.45;;;2.22;;
38683;SDS011;24910;53.248;-6.134;2022-11-20T08:53:58;15.27;;;3.70;;
38683;SDS011;24910;53.248;-6.134;2022-11-20T08:56:27;15.07;;;2.05;;
38683;SDS011;24910;53.248;-6.134;2022-11-20T08:58:56;10.75;;;1.70;;
38683;SDS011;24910;53.248;-6.134;2022-11-20T09:01:48;9.15;;;1.88;;
38683;SDS011;24910;53.248;-6.134;2022-11-20T09:04:17;14.80;;;2.33;;
38683;SDS011;24910;53.248;-6.134;2022-11-20T09:06:46;11.52;;;1.85;;
38683;SDS011;24910;53.248;-6.134;2022-11-20T09:09:18;8.02;;;1.80;;
38683;SDS011;24910;53.248;-6.134;2022-11-20T09:11:48;5.90;;;1.57;;
38683;SDS011;24910;53.248;-6.134;2022-11-20T09:14:18;10.43;;;1.55;;
38683;SDS011;24910;53.248;-6.134;2022-11-20T09:16:48;10.15;;;1.50;;
38683;SDS011;24910;53.248;-6.134;2022-11-20T09:19:17;7.10;;;1.53;;
38683;SDS011;24910;53.248;-6.134;2022-11-20T09:22:06;7.43;;;2.00;;
38683;SDS011;24910;53.248;-6.134;2022-11-20T09:24:35;10.38;;;1.85;;
38683;SDS011;24910;53.248;-6.134;2022-11-20T09:27:04;12.68;;;2.00;;
38683;SDS011;24910;53.248;-6.134;2022-11-20T09:29:34;10.70;;;1.63;;
38683;SDS011;24910;53.248;-6.134;2022-11-20T09:32:04;13.98;;;2.22;;
38683;SDS011;24910;53.248;-6.134;2022-11-20T09:34:33;8.02;;;1.40;;
38683;SDS011;24910;53.248;-6.134;2022-11-20T09:37:03;9.13;;;1.48;;
38683;SDS011;24910;53.248;-6.134;2022-11-20T09:39:33;7.30;;;1.40;;
38683;SDS011;24910;53.248;-6.134;2022-11-20T09:42:15;13.13;;;1.58;;
38683;SDS011;24910;53.248;-6.134;2022-11-20T09:45:02;8.95;;;1.55;;
38683;SDS011;24910;53.248;-6.134;2022-11-20T09:47:47;7.63;;;1.40;;
38683;SDS011;24910;53.248;-6.134;2022-11-20T09:50:31;6.53;;;1.48;;
38683;SDS011;24910;53.248;-6.134;2022-11-20T09:53:12;9.98;;;1.50;;
38683;SDS011;24910;53.248;-6.134;2022-11-20T09:55:47;9.00;;;1.40;;
38683;SDS011;24910;53.248;-6.134;2022-11-20T09:58:20;12.90;;;1.50;;
38683;SDS011;24910;53.248;-6.134;2022-11-20T10:01:00;8.55;;;1.60;;
38683;SDS011;24910;53.248;-6.134;2022-11-20T10:03:41;9.52;;;1.40;;
38683;SDS011;24910;53.248;-6.134;2022-11-20T10:06:18;8.10;;;1.73;;
38683;SDS011;24910;53.248;-6.134;2022-11-20T10:08:55;6.13;;;1.35;;
38683;SDS011;24910;53.248;-6.134;2022-11-20T10:11:38;7.65;;;1.60;;
38683;SDS011;24910;53.248;-6.134;2022-11-20T10:14:16;9.38;;;1.40;;
38683;SDS011;24910;53.248;-6.134;2022-11-20T10:16:56;15.07;;;1.15;;
38683;SDS011;24910;53.248;-6.134;2022-11-20T10:19:37;7.65;;;1.40;;
38683;SDS011;24910;53.248;-6.134;2022-11-20T10:22:20;11.07;;;1.77;;
38683;SDS011;24910;53.248;-6.134;2022-11-20T10:25:01;15.02;;;2.00;;
38683;SDS011;24910;53.248;-6.134;2022-11-20T10:27:39;8.70;;;1.35;;
38683;SDS011;24910;53.248;-6.134;2022-11-20T10:30:27;5.55;;;1.15;;
38683;SDS011;24910;53.248;-6.134;2022-11-20T10:32:58;9.35;;;1.35;;
38683;SDS011;24910;53.248;-6.134;2022-11-20T10:35:35;9.07;;;1.20;;
38683;SDS011;24910;53.248;-6.134;2022-11-20T10:38:09;9.32;;;1.38;;
38683;SDS011;24910;53.248;-6.134;2022-11-20T10:40:44;6.60;;;1.27;;
38683;SDS011;24910;53.248;-6.134;2022-11-20T10:43:16;10.15;;;1.30;;
38683;SDS011;24910;53.248;-6.134;2022-11-20T10:45:50;4.65;;;1.05;;
38683;SDS011;24910;53.248;-6.134;2022-11-20T10:48:25;6.80;;;1.20;;
38683;SDS011;24910;53.248;-6.134;2022-11-20T10:50:59;7.65;;;1.20;;
38683;SDS011;24910;53.248;-6.134;2022-11-20T10:53:42;6.45;;;1.08;;
38683;SDS011;24910;53.248;-6.134;2022-11-20T10:56:24;7.55;;;1.02;;
38683;SDS011;24910;53.248;-6.134;2022-11-20T11:02:00;3.65;;;0.77;;
38683;SDS011;24910;53.248;-6.134;2022-11-20T11:04:33;2.30;;;0.70;;
38683;SDS011;24910;53.248;-6.134;2022-11-20T11:07:10;4.57;;;0.80;;
38683;SDS011;24910;53.248;-6.134;2022-11-20T11:09:44;2.30;;;1.20;;
38683;SDS011;24910;53.248;-6.134;2022-11-20T11:12:16;3.70;;;0.73;;
38683;SDS011;24910;53.248;-6.134;2022-11-20T11:14:47;1.58;;;0.60;;
38683;SDS011;24910;53.248;-6.134;2022-11-20T11:17:19;4.90;;;0.70;;
38683;SDS011;24910;53.248;-6.134;2022-11-20T11:20:00;1.95;;;0.50;;
38683;SDS011;24910;53.248;-6.134;2022-11-20T11:22:42;0.98;;;0.50;;
38683;SDS011;24910;53.248;-6.134;2022-11-20T11:25:20;1.35;;;0.47;;
38683;SDS011;24910;53.248;-6.134;2022-11-20T11:27:53;1.98;;;0.55;;
38683;SDS011;24910;53.248;-6.134;2022-11-20T11:30:24;5.38;;;0.70;;
38683;SDS011;24910;53.248;-6.134;2022-11-20T11:35:38;1.77;;;0.47;;
38683;SDS011;24910;53.248;-6.134;2022-11-20T11:38:21;0.47;;;0.30;;
38683;SDS011;24910;53.248;-6.134;2022-11-20T11:40:57;5.68;;;5.10;;
38683;SDS011;24910;53.248;-6.134;2022-11-20T11:43:28;3.08;;;0.70;;
38683;SDS011;24910;53.248;-6.134;2022-11-20T11:46:30;2.88;;;0.80;;
38683;SDS011;24910;53.248;-6.134;2022-11-20T11:49:08;3.75;;;0.60;;
38683;SDS011;24910;53.248;-6.134;2022-11-20T11:51:46;1.77;;;0.70;;
38683;SDS011;24910;53.248;-6.134;2022-11-20T11:54:28;2.00;;;0.50;;
38683;SDS011;24910;53.248;-6.134;2022-11-20T11:57:03;2.75;;;0.63;;
38683;SDS011;24910;53.248;-6.134;2022-11-20T11:59:41;3.03;;;0.60;;
38683;SDS011;24910;53.248;-6.134;2022-11-20T12:02:23;2.42;;;0.65;;
38683;SDS011;24910;53.248;-6.134;2022-11-20T12:07:34;3.28;;;0.73;;
38683;SDS011;24910;53.248;-6.134;2022-11-20T12:10:22;6.93;;;1.02;;
38683;SDS011;24910;53.248;-6.134;2022-11-20T12:12:58;1.30;;;0.70;;
38683;SDS011;24910;53.248;-6.134;2022-11-20T12:15:33;1.52;;;0.70;;
38683;SDS011;24910;53.248;-6.134;2022-11-20T12:18:04;2.03;;;0.70;;
38683;SDS011;24910;53.248;-6.134;2022-11-20T12:20:42;4.30;;;0.73;;
38683;SDS011;24910;53.248;-6.134;2022-11-20T12:23:17;2.78;;;0.85;;
38683;SDS011;24910;53.248;-6.134;2022-11-20T12:25:50;3.60;;;0.65;;
38683;SDS011;24910;53.248;-6.134;2022-11-20T12:28:28;2.97;;;1.08;;
38683;SDS011;24910;53.248;-6.134;2022-11-20T12:34:13;1.90;;;0.55;;
38683;SDS011;24910;53.248;-6.134;2022-11-20T12:36:52;2.38;;;0.70;;
38683;SDS011;24910;53.248;-6.134;2022-11-20T12:39:35;4.22;;;0.65;;
38683;SDS011;24910;53.248;-6.134;2022-11-20T12:51:45;6.35;;;0.77;;
38683;SDS011;24910;53.248;-6.134;2022-11-20T12:54:30;3.72;;;0.70;;
38683;SDS011;24910;53.248;-6.134;2022-11-20T12:57:18;5.20;;;0.90;;
38683;SDS011;24910;53.248;-6.134;2022-11-20T12:59:58;3.70;;;0.90;;
38683;SDS011;24910;53.248;-6.134;2022-11-20T13:02:41;3.42;;;0.77;;
38683;SDS011;24910;53.248;-6.134;2022-11-20T13:08:02;4.60;;;0.80;;
38683;SDS011;24910;53.248;-6.134;2022-11-20T13:10:46;7.10;;;1.00;;
38683;SDS011;24910;53.248;-6.134;2022-11-20T13:13:26;3.88;;;1.00;;
38683;SDS011;24910;53.248;-6.134;2022-11-20T13:16:04;2.83;;;0.80;;
38683;SDS011;24910;53.248;-6.134;2022-11-20T13:18:40;4.50;;;0.88;;
38683;SDS011;24910;53.248;-6.134;2022-11-20T13:21:16;1.95;;;0.60;;
38683;SDS011;24910;53.248;-6.134;2022-11-20T13:23:46;3.92;;;0.95;;
38683;SDS011;24910;53.248;-6.134;2022-11-20T13:26:17;4.07;;;0.85;;
38683;SDS011;24910;53.248;-6.134;2022-11-20T13:28:59;2.65;;;0.68;;
38683;SDS011;24910;53.248;-6.134;2022-11-20T13:31:33;3.05;;;0.80;;
38683;SDS011;24910;53.248;-6.134;2022-11-20T13:34:05;5.43;;;1.00;;
38683;SDS011;24910;53.248;-6.134;2022-11-20T13:36:35;3.70;;;0.80;;
38683;SDS011;24910;53.248;-6.134;2022-11-20T13:39:04;3.10;;;0.90;;
38683;SDS011;24910;53.248;-6.134;2022-11-20T13:41:37;5.15;;;0.93;;
38683;SDS011;24910;53.248;-6.134;2022-11-20T13:44:12;8.10;;;0.87;;
38683;SDS011;24910;53.248;-6.134;2022-11-20T13:46:45;7.07;;;1.10;;
38683;SDS011;24910;53.248;-6.134;2022-11-20T13:49:16;2.35;;;0.90;;
38683;SDS011;24910;53.248;-6.134;2022-11-20T13:51:56;2.83;;;0.80;;
38683;SDS011;24910;53.248;-6.134;2022-11-20T13:54:43;6.22;;;1.17;;
38683;SDS011;24910;53.248;-6.134;2022-11-20T13:57:34;4.05;;;1.08;;
38683;SDS011;24910;53.248;-6.134;2022-11-20T14:00:22;6.07;;;1.10;;
38683;SDS011;24910;53.248;-6.134;2022-11-20T14:03:01;7.53;;;1.35;;
38683;SDS011;24910;53.248;-6.134;2022-11-20T14:05:39;3.53;;;1.10;;
38683;SDS011;24910;53.248;-6.134;2022-11-20T14:08:18;5.53;;;1.00;;
38683;SDS011;24910;53.248;-6.134;2022-11-20T14:11:02;5.07;;;1.00;;
38683;SDS011;24910;53.248;-6.134;2022-11-20T14:13:50;6.93;;;1.10;;
38683;SDS011;24910;53.248;-6.134;2022-11-20T14:16:24;7.35;;;0.90;;
38683;SDS011;24910;53.248;-6.134;2022-11-20T14:18:57;7.07;;;1.30;;
38683;SDS011;24910;53.248;-6.134;2022-11-20T14:21:45;7.90;;;1.10;;
38683;SDS011;24910;53.248;-6.134;2022-11-20T14:24:18;5.00;;;0.98;;
38683;SDS011;24910;53.248;-6.134;2022-11-20T14:26:49;6.55;;;1.13;;
38683;SDS011;24910;53.248;-6.134;2022-11-20T14:29:20;3.97;;;1.00;;
38683;SDS011;24910;53.248;-6.134;2022-11-20T14:31:52;6.97;;;1.20;;
38683;SDS011;24910;53.248;-6.134;2022-11-20T14:34:25;6.13;;;1.60;;
38683;SDS011;24910;53.248;-6.134;2022-11-20T14:36:58;9.63;;;1.55;;
38683;SDS011;24910;53.248;-6.134;2022-11-20T14:39:30;12.40;;;1.60;;
38683;SDS011;24910;53.248;-6.134;2022-11-20T14:42:01;10.75;;;1.92;;
38683;SDS011;24910;53.248;-6.134;2022-11-20T14:44:32;8.00;;;1.95;;
38683;SDS011;24910;53.248;-6.134;2022-11-20T14:47:05;2.35;;;1.20;;
38683;SDS011;24910;53.248;-6.134;2022-11-20T14:49:36;6.18;;;1.05;;
38683;SDS011;24910;53.248;-6.134;2022-11-20T14:54:43;4.30;;;1.33;;
38683;SDS011;24910;53.248;-6.134;2022-11-20T14:57:23;8.55;;;1.55;;
38683;SDS011;24910;53.248;-6.134;2022-11-20T15:00:08;5.47;;;1.60;;
38683;SDS011;24910;53.248;-6.134;2022-11-20T15:02:48;3.20;;;1.20;;
38683;SDS011;24910;53.248;-6.134;2022-11-20T15:05:22;9.55;;;1.40;;
38683;SDS011;24910;53.248;-6.134;2022-11-20T15:08:04;6.45;;;1.10;;
38683;SDS011;24910;53.248;-6.134;2022-11-20T15:10:34;6.63;;;1.38;;
38683;SDS011;24910;53.248;-6.134;2022-11-20T15:13:05;5.20;;;1.40;;
38683;SDS011;24910;53.248;-6.134;2022-11-20T15:15:42;7.57;;;1.67;;
38683;SDS011;24910;53.248;-6.134;2022-11-20T15:18:16;7.30;;;1.45;;
38683;SDS011;24910;53.248;-6.134;2022-11-20T15:20:48;8.00;;;1.52;;
38683;SDS011;24910;53.248;-6.134;2022-11-20T15:23:18;10.73;;;1.70;;
38683;SDS011;24910;53.248;-6.134;2022-11-20T15:25:48;4.47;;;0.90;;
38683;SDS011;24910;53.248;-6.134;2022-11-20T15:28:31;4.70;;;0.98;;
38683;SDS011;24910;53.248;-6.134;2022-11-20T15:31:01;4.05;;;1.30;;
38683;SDS011;24910;53.248;-6.134;2022-11-20T15:33:34;4.82;;;1.10;;